Time;durP1;ratioP1;P1;durP2;ratioP2;P2;SDS_P1;SDS_P2;PMS_P1;PMS_P2;Temp;Humidity;BMP_temperature;BMP_pressure;BME280_temperature;BME280_humidity;BME280_pressure;Samples;Min_cycle;Max_cycle;Signal;HPM_P1;HPM_P2
2023/08/10 00:01:26;;;;;;;11.48;2.42;;;13.50;99.90;;;;;;5035168;28;20052;-68
2023/08/10 00:03:52;;;;;;;6.03;2.13;;;13.50;99.90;;;;;;5044074;28;20133;-68
2023/08/10 00:06:17;;;;;;;5.65;2.30;;;13.50;99.90;;;;;;5036023;28;20068;-68
2023/08/10 00:08:43;;;;;;;6.20;2.10;;;13.40;99.90;;;;;;5026003;28;20045;-68
2023/08/10 00:11:08;;;;;;;6.80;2.67;;;13.40;99.90;;;;;;5027311;28;20496;-68
2023/08/10 00:13:34;;;;;;;7.28;2.10;;;13.40;99.90;;;;;;5059782;28;20049;-68
2023/08/10 00:15:59;;;;;;;3.90;2.10;;;13.40;99.90;;;;;;5046745;28;20048;-68
2023/08/10 00:18:25;;;;;;;4.85;1.80;;;13.30;99.90;;;;;;5038207;28;20601;-68
2023/08/10 00:20:50;;;;;;;7.20;1.80;;;13.30;99.90;;;;;;5059138;28;20441;-67
2023/08/10 00:23:16;;;;;;;7.50;2.30;;;13.20;99.90;;;;;;5051822;28;20393;-67
2023/08/10 00:25:42;;;;;;;10.35;2.53;;;13.20;99.90;;;;;;5043525;28;20037;-68
2023/08/10 00:28:08;;;;;;;5.80;2.55;;;13.10;99.90;;;;;;5043428;28;20188;-68
2023/08/10 00:30:34;;;;;;;4.63;1.65;;;13.10;99.90;;;;;;5036516;28;20546;-67
2023/08/10 00:32:59;;;;;;;5.60;2.10;;;13.10;99.90;;;;;;5043500;28;20045;-68
2023/08/10 00:35:25;;;;;;;6.50;2.13;;;13.00;99.90;;;;;;5039529;28;20077;-68
2023/08/10 00:37:51;;;;;;;4.18;1.90;;;13.00;99.90;;;;;;5048251;28;20120;-68
2023/08/10 00:40:16;;;;;;;4.15;1.75;;;12.90;99.90;;;;;;5052075;28;20037;-68
2023/08/10 00:42:42;;;;;;;5.93;2.08;;;12.80;99.90;;;;;;5054771;28;20029;-68
2023/08/10 00:45:09;;;;;;;4.53;2.10;;;12.70;99.90;;;;;;5047674;28;20214;-68
2023/08/10 00:47:35;;;;;;;8.98;2.00;;;12.60;99.90;;;;;;5038265;28;20080;-68
2023/08/10 00:50:02;;;;;;;5.60;2.33;;;12.50;99.90;;;;;;5040162;28;20041;-68
2023/08/10 00:52:28;;;;;;;3.92;2.10;;;12.50;99.90;;;;;;5045751;28;20067;-68
2023/08/10 00:54:54;;;;;;;5.85;2.10;;;12.40;99.90;;;;;;5052081;28;20049;-68
2023/08/10 00:57:20;;;;;;;9.10;2.20;;;12.40;99.90;;;;;;5029441;28;20442;-67
2023/08/10 00:59:47;;;;;;;4.57;2.00;;;12.40;99.90;;;;;;5032948;28;20068;-68
2023/08/10 01:02:12;;;;;;;5.68;1.98;;;12.30;99.90;;;;;;5041072;28;20485;-68
2023/08/10 01:04:39;;;;;;;5.68;2.20;;;12.30;99.90;;;;;;5043587;28;20183;-68
2023/08/10 01:07:19;;;;;;;3.72;2.00;;;12.30;99.90;;;;;;5038542;28;20412;-68
2023/08/10 01:09:53;;;;;;;3.20;1.90;;;12.30;99.90;;;;;;5043782;28;20049;-68
2023/08/10 01:12:36;;;;;;;3.53;2.00;;;12.40;99.90;;;;;;5043010;28;20045;-68
2023/08/10 01:15:17;;;;;;;5.82;2.00;;;12.60;99.90;;;;;;5045751;28;20430;-68
2023/08/10 01:17:50;;;;;;;8.13;2.90;;;12.70;99.90;;;;;;5035469;28;20642;-68
2023/08/10 01:20:21;;;;;;;9.82;2.30;;;12.80;99.90;;;;;;5032355;28;20688;-68
2023/08/10 01:22:50;;;;;;;;;;;12.90;99.90;;;;;;5052267;28;20500;-68
2023/08/10 01:25:16;;;;;;;4.90;2.13;;;12.90;99.90;;;;;;5042607;28;19921;-68
2023/08/10 01:27:44;;;;;;;11.55;2.25;;;13.00;99.90;;;;;;5030429;28;20071;-68
2023/08/10 01:30:11;;;;;;;4.25;1.95;;;13.00;99.90;;;;;;5035673;28;20120;-67
2023/08/10 01:32:37;;;;;;;4.20;2.10;;;13.10;99.90;;;;;;5049457;28;20072;-68
2023/08/10 01:35:05;;;;;;;6.43;2.28;;;13.10;99.90;;;;;;5039623;28;20083;-68
2023/08/10 01:37:32;;;;;;;7.03;2.45;;;13.10;99.90;;;;;;5045228;28;20037;-68
2023/08/10 01:39:59;;;;;;;4.70;2.10;;;13.10;99.90;;;;;;5036399;28;20076;-67
2023/08/10 01:42:25;;;;;;;4.10;1.98;;;13.10;99.90;;;;;;5058745;28;20037;-68
2023/08/10 01:44:50;;;;;;;8.15;2.40;;;13.20;99.90;;;;;;5036876;28;20045;-67
2023/08/10 01:47:25;;;;;;;4.60;2.08;;;13.20;99.90;;;;;;5039836;28;20037;-68
2023/08/10 01:49:56;;;;;;;6.28;2.30;;;13.20;99.90;;;;;;5058397;28;20516;-68
2023/08/10 01:52:31;;;;;;;6.40;2.40;;;13.20;99.90;;;;;;5048537;28;20060;-68
2023/08/10 01:54:58;;;;;;;6.82;2.30;;;13.20;99.90;;;;;;5044680;28;20048;-67
2023/08/10 01:57:23;;;;;;;6.40;2.03;;;13.30;99.90;;;;;;5043883;28;20200;-68
2023/08/10 01:59:49;;;;;;;5.60;2.13;;;13.30;99.90;;;;;;5045825;28;20460;-68
2023/08/10 02:02:15;;;;;;;7.13;2.17;;;13.30;99.90;;;;;;5032483;28;20226;-67
2023/08/10 02:04:40;;;;;;;5.78;2.10;;;13.30;99.90;;;;;;5035466;28;20033;-68
2023/08/10 02:07:06;;;;;;;7.32;1.90;;;13.30;99.90;;;;;;5044122;28;20369;-67
2023/08/10 02:09:32;;;;;;;5.75;2.97;;;13.30;99.90;;;;;;5026674;28;20067;-67
2023/08/10 02:11:58;;;;;;;5.47;2.30;;;13.30;99.90;;;;;;5026404;28;20405;-71
2023/08/10 02:14:23;;;;;;;8.05;2.60;;;13.30;99.90;;;;;;5041750;28;20069;-67
2023/08/10 02:16:49;;;;;;;8.70;1.92;;;13.30;99.90;;;;;;5049897;28;20493;-68
2023/08/10 02:19:14;;;;;;;5.70;2.22;;;13.30;99.90;;;;;;5032961;28;20056;-68
2023/08/10 02:21:40;;;;;;;4.82;2.10;;;13.30;99.90;;;;;;5041177;28;20044;-67
2023/08/10 02:24:06;;;;;;;5.65;2.53;;;13.30;99.90;;;;;;5057439;28;20059;-68
2023/08/10 02:26:31;;;;;;;6.10;2.20;;;13.30;99.90;;;;;;5042382;28;20286;-68
2023/08/10 02:28:57;;;;;;;5.75;2.67;;;13.20;99.90;;;;;;5042547;28;20433;-68
2023/08/10 02:31:23;;;;;;;6.97;2.58;;;13.20;99.90;;;;;;5037503;28;20034;-68
2023/08/10 02:33:49;;;;;;;6.05;2.58;;;13.20;99.90;;;;;;5048880;28;20037;-68
2023/08/10 02:36:15;;;;;;;6.50;2.30;;;13.20;99.90;;;;;;5049647;28;20130;-68
2023/08/10 02:38:40;;;;;;;5.20;2.00;;;13.20;99.90;;;;;;5025598;28;20069;-67
2023/08/10 02:41:06;;;;;;;5.60;2.35;;;13.20;99.90;;;;;;5033666;28;20056;-68
2023/08/10 02:43:31;;;;;;;7.13;2.38;;;13.20;99.90;;;;;;5046124;28;20051;-67
2023/08/10 02:45:57;;;;;;;3.97;2.35;;;13.10;99.90;;;;;;5044940;28;20112;-68
2023/08/10 02:48:22;;;;;;;8.02;2.58;;;13.10;99.90;;;;;;5049638;28;20090;-68
2023/08/10 02:50:48;;;;;;;5.55;2.33;;;13.10;99.90;;;;;;5051864;28;20060;-68
2023/08/10 02:53:14;;;;;;;6.55;2.85;;;13.10;99.90;;;;;;5040060;28;20129;-67
2023/08/10 02:55:39;;;;;;;5.90;2.28;;;13.00;99.90;;;;;;5030250;28;20048;-68
2023/08/10 02:58:05;;;;;;;4.78;2.20;;;13.00;99.90;;;;;;5035659;28;20037;-68
2023/08/10 03:00:31;;;;;;;2.80;2.08;;;13.00;99.90;;;;;;5047176;28;20028;-68
2023/08/10 03:02:56;;;;;;;7.03;2.60;;;13.00;99.90;;;;;;5061937;28;20040;-68
2023/08/10 03:05:22;;;;;;;7.40;2.70;;;13.00;99.90;;;;;;5042854;28;20042;-68
2023/08/10 03:07:48;;;;;;;8.05;2.22;;;13.00;99.90;;;;;;5034179;28;20044;-68
2023/08/10 03:10:14;;;;;;;7.55;2.50;;;13.00;99.90;;;;;;5031311;28;20056;-67
2023/08/10 03:12:40;;;;;;;9.40;3.08;;;13.00;99.90;;;;;;5035537;28;20136;-67
2023/08/10 03:15:09;;;;;;;6.78;2.33;;;13.00;99.90;;;;;;5040616;28;20146;-68
2023/08/10 03:17:35;;;;;;;7.97;2.60;;;13.10;99.90;;;;;;5041123;28;20052;-67
2023/08/10 03:20:01;;;;;;;4.20;2.33;;;13.10;99.90;;;;;;5026727;28;20037;-67
2023/08/10 03:22:27;;;;;;;6.05;2.67;;;13.10;99.90;;;;;;5032508;28;20181;-68
2023/08/10 03:24:53;;;;;;;4.45;2.63;;;13.10;99.90;;;;;;5066398;28;20040;-69
2023/08/10 03:27:19;;;;;;;5.93;2.47;;;13.10;99.90;;;;;;5034732;28;20115;-68
2023/08/10 03:29:45;;;;;;;6.13;2.72;;;13.10;99.90;;;;;;5031004;28;20198;-68
2023/08/10 03:32:10;;;;;;;5.15;2.40;;;13.00;99.90;;;;;;5038075;28;20143;-68
2023/08/10 03:34:36;;;;;;;3.45;2.40;;;13.10;99.90;;;;;;5052447;28;20040;-68
2023/08/10 03:37:03;;;;;;;5.60;2.53;;;13.10;99.90;;;;;;5046789;28;20038;-68
2023/08/10 03:39:28;;;;;;;7.13;2.53;;;13.10;99.90;;;;;;5037938;28;20733;-68
2023/08/10 03:41:54;;;;;;;10.35;2.83;;;13.10;99.90;;;;;;5042911;28;20120;-68
2023/08/10 03:44:19;;;;;;;3.85;2.45;;;13.10;99.90;;;;;;5054225;28;20072;-68
2023/08/10 03:46:45;;;;;;;6.10;2.60;;;13.10;99.90;;;;;;5043302;28;20041;-67
2023/08/10 03:49:11;;;;;;;9.73;2.90;;;13.10;99.90;;;;;;5048861;28;20041;-68
2023/08/10 03:51:36;;;;;;;5.85;2.83;;;13.10;99.90;;;;;;5047627;28;20049;-68
2023/08/10 03:54:02;;;;;;;4.82;2.65;;;13.10;99.90;;;;;;5038018;28;20043;-68
2023/08/10 03:56:27;;;;;;;6.93;2.58;;;13.10;99.90;;;;;;5043690;28;20055;-68
2023/08/10 03:58:53;;;;;;;5.10;2.42;;;13.10;99.90;;;;;;5039964;28;20038;-68
2023/08/10 04:01:19;;;;;;;4.28;2.33;;;13.20;99.90;;;;;;5042881;28;20152;-68
2023/08/10 04:03:44;;;;;;;4.20;2.42;;;13.20;99.90;;;;;;5040105;28;20520;-68
2023/08/10 04:06:10;;;;;;;4.47;2.17;;;13.30;99.90;;;;;;5024127;28;20111;-68
2023/08/10 04:08:36;;;;;;;6.28;2.35;;;13.20;99.90;;;;;;5055939;28;20044;-68
2023/08/10 04:11:01;;;;;;;7.78;2.90;;;13.20;99.90;;;;;;5027912;28;20426;-68
2023/08/10 04:13:27;;;;;;;5.13;2.50;;;13.20;99.90;;;;;;5031146;28;20110;-68
2023/08/10 04:15:53;;;;;;;3.58;2.25;;;13.20;99.90;;;;;;5026690;28;20765;-68
2023/08/10 04:18:18;;;;;;;8.77;2.35;;;13.20;99.90;;;;;;5022119;28;20064;-68
2023/08/10 04:20:44;;;;;;;6.38;2.33;;;13.30;99.90;;;;;;5025107;28;20234;-67
2023/08/10 04:23:10;;;;;;;6.30;2.40;;;13.30;99.90;;;;;;5022903;28;20045;-67
2023/08/10 04:25:36;;;;;;;5.53;2.50;;;13.30;99.90;;;;;;5026209;28;20121;-67
2023/08/10 04:28:02;;;;;;;8.00;2.70;;;13.30;99.90;;;;;;5026124;28;20119;-68
2023/08/10 04:30:29;;;;;;;3.92;2.28;;;13.30;99.90;;;;;;5037955;28;20041;-68
2023/08/10 04:32:56;;;;;;;4.28;2.47;;;13.40;99.90;;;;;;5026391;28;20398;-68
2023/08/10 04:35:22;;;;;;;5.70;2.92;;;13.30;99.90;;;;;;5007875;28;20098;-68
2023/08/10 04:37:49;;;;;;;7.25;2.17;;;13.40;99.90;;;;;;5029036;28;20080;-68
2023/08/10 04:40:14;;;;;;;5.70;2.10;;;13.40;99.90;;;;;;5021930;28;20049;-68
2023/08/10 04:42:40;;;;;;;7.88;2.33;;;13.40;99.90;;;;;;5025697;28;20469;-68
2023/08/10 04:45:09;;;;;;;5.38;2.50;;;13.40;99.90;;;;;;5031291;28;20042;-68
2023/08/10 04:47:34;;;;;;;5.00;2.30;;;13.40;99.90;;;;;;5032915;28;20037;-68
2023/08/10 04:50:00;;;;;;;6.35;2.67;;;13.40;99.90;;;;;;5031928;28;20061;-67
2023/08/10 04:52:26;;;;;;;5.40;2.60;;;13.50;99.90;;;;;;5033507;28;20067;-68
2023/08/10 04:54:51;;;;;;;10.38;2.30;;;13.40;99.90;;;;;;5025886;28;20042;-68
2023/08/10 04:57:17;;;;;;;3.80;2.30;;;13.50;99.90;;;;;;5037264;28;20033;-68
2023/08/10 04:59:42;;;;;;;3.97;2.28;;;13.50;99.90;;;;;;5054347;28;20044;-68
2023/08/10 05:02:08;;;;;;;5.00;2.70;;;13.50;99.90;;;;;;5029011;28;20037;-68
2023/08/10 05:04:34;;;;;;;3.40;2.20;;;13.50;99.90;;;;;;5027072;28;20448;-68
2023/08/10 05:07:00;;;;;;;8.48;2.78;;;13.50;99.90;;;;;;5040294;28;20038;-68
2023/08/10 05:09:25;;;;;;;6.35;2.22;;;13.60;99.90;;;;;;5050152;28;20086;-68
2023/08/10 05:11:51;;;;;;;5.13;2.45;;;13.60;99.90;;;;;;5027607;28;20514;-68
2023/08/10 05:14:16;;;;;;;8.13;2.20;;;13.70;99.90;;;;;;5050191;28;20413;-69
2023/08/10 05:16:42;;;;;;;3.85;2.28;;;13.70;99.90;;;;;;5041417;28;20413;-67
2023/08/10 05:19:08;;;;;;;4.55;2.17;;;13.70;99.90;;;;;;5030996;28;20060;-70
2023/08/10 05:21:33;;;;;;;5.20;2.22;;;13.80;99.90;;;;;;5030815;28;20045;-68
2023/08/10 05:23:59;;;;;;;7.00;2.50;;;13.80;99.90;;;;;;5024073;28;20043;-68
2023/08/10 05:26:25;;;;;;;4.45;2.00;;;13.90;99.90;;;;;;5023756;28;20056;-68
2023/08/10 05:28:50;;;;;;;7.18;2.40;;;13.90;99.90;;;;;;5027369;28;20030;-68
2023/08/10 05:31:16;;;;;;;6.25;2.28;;;13.90;99.90;;;;;;5044949;28;20494;-68
2023/08/10 05:33:41;;;;;;;6.03;2.22;;;14.00;99.90;;;;;;5039683;28;20060;-68
2023/08/10 05:36:07;;;;;;;6.38;2.33;;;14.00;99.90;;;;;;5049811;28;20063;-68
2023/08/10 05:38:33;;;;;;;4.50;2.33;;;14.00;99.90;;;;;;5031158;28;20085;-68
2023/08/10 05:40:58;;;;;;;6.22;2.38;;;14.10;99.90;;;;;;5048064;28;20032;-68
2023/08/10 05:43:24;;;;;;;7.88;2.65;;;14.10;99.90;;;;;;5045743;28;20041;-68
2023/08/10 05:45:49;;;;;;;5.05;2.28;;;14.20;99.90;;;;;;5049816;28;20040;-69
2023/08/10 05:48:15;;;;;;;5.20;1.92;;;14.30;99.90;;;;;;5048430;28;20044;-68
2023/08/10 05:50:41;;;;;;;6.28;2.28;;;14.40;99.90;;;;;;5024347;28;20075;-68
2023/08/10 05:53:07;;;;;;;5.70;1.75;;;14.40;99.90;;;;;;5043558;28;20072;-68
2023/08/10 05:55:35;;;;;;;6.70;2.00;;;14.50;99.90;;;;;;5037663;28;20076;-68
2023/08/10 05:58:01;;;;;;;3.63;2.13;;;14.50;99.90;;;;;;5037221;28;20488;-68
2023/08/10 06:00:27;;;;;;;6.53;1.83;;;14.60;99.90;;;;;;5046172;28;20044;-68
2023/08/10 06:02:53;;;;;;;7.93;2.33;;;14.80;99.90;;;;;;5039623;28;20052;-68
2023/08/10 06:05:19;;;;;;;6.53;2.28;;;14.90;99.90;;;;;;5046817;28;20434;-69
2023/08/10 06:07:47;;;;;;;6.75;2.00;;;15.00;99.90;;;;;;5042748;28;20048;-68
2023/08/10 06:10:14;;;;;;;3.03;1.85;;;15.00;99.90;;;;;;5040654;28;20034;-68
2023/08/10 06:12:41;;;;;;;5.25;2.10;;;15.00;99.90;;;;;;5037767;28;20093;-68
2023/08/10 06:15:10;;;;;;;5.82;1.90;;;15.10;99.90;;;;;;5043386;28;20033;-68
2023/08/10 06:17:37;;;;;;;6.40;2.00;;;15.10;99.90;;;;;;5038887;28;20469;-68
2023/08/10 06:20:21;;;;;;;5.28;2.08;;;15.10;99.90;;;;;;5040305;28;20526;-67
2023/08/10 06:22:48;;;;;;;11.88;2.58;;;15.20;99.90;;;;;;5045213;28;20525;-68
2023/08/10 06:25:14;;;;;;;4.18;1.65;;;15.30;99.90;;;;;;5034309;28;20816;-68
2023/08/10 06:27:40;;;;;;;7.95;1.83;;;15.30;99.90;;;;;;5044151;28;20037;-69
2023/08/10 06:30:07;;;;;;;5.63;2.10;;;15.40;99.90;;;;;;5043077;28;20373;-70
2023/08/10 06:32:37;;;;;;;3.92;1.77;;;15.40;99.90;;;;;;5044949;28;20068;-70
2023/08/10 06:35:04;;;;;;;4.40;1.63;;;15.60;99.90;;;;;;5040379;28;20124;-68
2023/08/10 06:37:30;;;;;;;15.48;1.83;;;15.80;99.90;;;;;;5038874;28;20361;-69
2023/08/10 06:39:55;;;;;;;18.27;3.30;;;16.10;99.90;;;;;;5044379;28;20040;-70
2023/08/10 06:42:22;;;;;;;4.18;1.77;;;16.30;99.90;;;;;;5029190;28;20055;-69
2023/08/10 06:44:48;;;;;;;4.13;1.63;;;16.50;99.90;;;;;;5043206;28;20037;-70
2023/08/10 06:47:14;;;;;;;4.75;1.30;;;16.80;99.90;;;;;;5033421;28;20037;-70
2023/08/10 06:49:39;;;;;;;6.55;1.67;;;17.00;99.90;;;;;;5046732;28;20453;-70
2023/08/10 06:52:05;;;;;;;5.45;1.50;;;17.10;99.90;;;;;;5051738;28;20053;-70
2023/08/10 06:54:31;;;;;;;7.40;1.48;;;17.40;99.90;;;;;;5045068;28;20139;-70
2023/08/10 06:56:57;;;;;;;5.32;1.30;;;17.70;99.90;;;;;;5044421;28;20056;-71
2023/08/10 06:59:23;;;;;;;5.75;1.25;;;17.90;99.90;;;;;;5029011;28;20387;-71
2023/08/10 07:01:48;;;;;;;5.93;1.48;;;18.20;99.30;;;;;;5031157;28;20029;-70
2023/08/10 07:04:14;;;;;;;6.07;1.90;;;18.50;97.60;;;;;;5037350;28;20099;-70
2023/08/10 07:06:40;;;;;;;5.00;1.23;;;18.60;96.60;;;;;;5032232;28;20098;-71
2023/08/10 07:09:05;;;;;;;3.60;0.98;;;18.70;95.80;;;;;;5036108;28;20041;-71
2023/08/10 07:11:31;;;;;;;4.97;1.25;;;18.90;94.50;;;;;;5029227;28;20050;-70
2023/08/10 07:13:57;;;;;;;3.17;1.10;;;19.00;93.20;;;;;;5034248;28;20051;-70
2023/08/10 07:16:23;;;;;;;3.70;1.10;;;19.10;92.70;;;;;;5049758;28;20102;-70
2023/08/10 07:18:50;;;;;;;5.00;1.45;;;19.10;92.30;;;;;;5049051;28;20040;-70
2023/08/10 07:21:16;;;;;;;5.13;1.05;;;19.40;91.00;;;;;;5044687;28;20033;-70
2023/08/10 07:23:41;;;;;;;3.22;1.30;;;19.50;90.60;;;;;;5047648;28;20444;-71
2023/08/10 07:26:07;;;;;;;3.30;1.00;;;19.60;89.80;;;;;;5034917;28;20029;-72
2023/08/10 07:28:32;;;;;;;5.28;0.90;;;19.80;89.30;;;;;;5023946;28;20037;-70
2023/08/10 07:31:01;;;;;;;3.15;0.98;;;19.90;85.20;;;;;;5038280;28;20041;-72
2023/08/10 07:33:28;;;;;;;3.13;1.00;;;20.20;79.40;;;;;;5028855;28;20045;-70
2023/08/10 07:35:54;;;;;;;3.92;0.90;;;20.30;79.70;;;;;;5032053;28;20041;-71
2023/08/10 07:38:19;;;;;;;3.42;1.02;;;20.40;79.20;;;;;;5029110;28;20091;-71
2023/08/10 07:40:45;;;;;;;4.35;1.25;;;20.60;77.90;;;;;;5044593;28;20074;-72
2023/08/10 07:43:10;;;;;;;5.10;1.20;;;20.80;77.10;;;;;;5040539;28;20064;-72
2023/08/10 07:45:36;;;;;;;5.65;1.20;;;20.90;75.40;;;;;;5048340;28;20040;-72
2023/08/10 07:48:02;;;;;;;5.43;1.30;;;21.00;73.80;;;;;;5048226;28;20055;-72
2023/08/10 07:50:28;;;;;;;1.92;0.90;;;21.20;72.90;;;;;;5043801;28;20037;-72
2023/08/10 07:52:54;;;;;;;3.17;0.90;;;21.40;72.00;;;;;;5040600;28;20416;-71
2023/08/10 07:55:19;;;;;;;2.08;1.10;;;21.50;70.90;;;;;;5036331;28;20064;-72
2023/08/10 07:57:45;;;;;;;6.18;0.90;;;21.80;70.10;;;;;;5027523;28;20542;-71
2023/08/10 08:00:12;;;;;;;5.57;1.05;;;22.10;67.90;;;;;;5050334;28;20067;-73
2023/08/10 08:02:38;;;;;;;1.45;0.85;;;22.30;66.40;;;;;;5037117;28;20037;-72
2023/08/10 08:05:04;;;;;;;2.70;0.88;;;22.70;64.90;;;;;;5039283;28;20492;-73
2023/08/10 08:07:32;;;;;;;2.88;0.70;;;22.80;64.10;;;;;;5044713;28;20037;-75
2023/08/10 08:10:01;;;;;;;3.67;0.85;;;22.60;62.60;;;;;;5044973;28;20029;-72
2023/08/10 08:12:27;;;;;;;4.15;1.10;;;22.60;61.20;;;;;;5044287;28;20086;-73
2023/08/10 08:14:55;;;;;;;1.63;0.90;;;22.60;61.60;;;;;;5057405;28;20476;-71
2023/08/10 08:17:22;;;;;;;3.15;0.90;;;22.60;61.50;;;;;;5042750;28;20032;-71
2023/08/10 08:19:55;;;;;;;3.55;1.00;;;22.50;60.70;;;;;;5045250;28;20149;-71
2023/08/10 08:22:21;;;;;;;4.40;0.80;;;22.40;60.30;;;;;;5054012;28;20453;-71
2023/08/10 08:24:50;;;;;;;2.75;0.90;;;22.00;60.70;;;;;;5064255;28;20051;-71
2023/08/10 08:27:15;;;;;;;4.95;0.98;;;22.00;60.70;;;;;;5048321;28;20049;-73
2023/08/10 08:29:41;;;;;;;5.00;0.88;;;21.50;60.10;;;;;;5039891;28;20143;-71
2023/08/10 08:32:07;;;;;;;4.32;0.93;;;21.20;60.70;;;;;;5042819;28;20452;-68
2023/08/10 08:34:35;;;;;;;2.72;0.80;;;21.00;60.90;;;;;;5049346;28;20392;-72
2023/08/10 08:37:01;;;;;;;3.75;0.90;;;20.90;61.20;;;;;;5045208;28;20086;-71
2023/08/10 08:39:26;;;;;;;4.97;0.90;;;20.70;61.40;;;;;;5049201;28;20037;-71
2023/08/10 08:41:54;;;;;;;3.22;0.90;;;20.70;62.20;;;;;;5036858;28;20032;-69
2023/08/10 08:44:20;;;;;;;1.90;0.70;;;20.70;62.30;;;;;;5046365;28;20101;-70
2023/08/10 08:46:48;;;;;;;5.35;1.77;;;20.60;62.00;;;;;;5036515;28;20045;-70
2023/08/10 08:49:15;;;;;;;3.47;1.05;;;20.60;62.30;;;;;;5029227;28;20225;-71
2023/08/10 08:51:41;;;;;;;1.75;0.60;;;20.50;62.60;;;;;;5039861;28;20136;-71
2023/08/10 08:54:10;;;;;;;2.95;0.80;;;20.40;63.30;;;;;;5049072;28;20040;-70
2023/08/10 08:56:36;;;;;;;3.38;1.10;;;20.20;63.40;;;;;;5015650;28;20047;-71
2023/08/10 08:59:02;;;;;;;4.00;1.02;;;20.20;63.70;;;;;;5038121;28;20037;-71
2023/08/10 09:01:28;;;;;;;7.60;2.35;;;20.10;63.50;;;;;;5032621;28;20056;-70
2023/08/10 09:03:54;;;;;;;2.30;0.70;;;20.20;63.70;;;;;;5039236;28;20079;-70
2023/08/10 09:06:19;;;;;;;3.53;1.00;;;20.20;64.10;;;;;;5019777;28;20064;-70
2023/08/10 09:08:45;;;;;;;2.65;0.60;;;20.30;64.40;;;;;;5035963;28;20423;-68
2023/08/10 09:11:11;;;;;;;2.03;0.80;;;20.30;64.50;;;;;;5032698;28;20078;-70
2023/08/10 09:13:37;;;;;;;2.80;1.00;;;20.30;64.10;;;;;;5034038;28;20169;-70
2023/08/10 09:16:14;;;;;;;2.20;0.80;;;20.20;64.20;;;;;;5050446;28;20063;-70
2023/08/10 09:18:42;;;;;;;3.60;1.05;;;20.30;64.10;;;;;;5047154;28;20047;-71
2023/08/10 09:21:16;;;;;;;3.10;0.80;;;20.50;63.40;;;;;;5047457;28;20037;-70
2023/08/10 09:23:44;;;;;;;1.80;0.90;;;20.40;63.20;;;;;;5030856;28;20033;-71
2023/08/10 09:26:11;;;;;;;2.00;0.80;;;20.50;63.20;;;;;;5015041;28;20129;-71
2023/08/10 09:28:37;;;;;;;2.97;0.70;;;20.60;63.60;;;;;;5030021;28;20449;-71
2023/08/10 09:31:07;;;;;;;3.95;1.00;;;20.60;63.50;;;;;;5036211;28;20032;-70
2023/08/10 09:33:34;;;;;;;2.65;0.70;;;20.60;63.50;;;;;;5045285;28;20041;-69
2023/08/10 09:36:00;;;;;;;4.30;1.00;;;20.80;63.40;;;;;;5030926;28;20087;-70
2023/08/10 09:38:26;;;;;;;2.47;0.90;;;20.80;63.70;;;;;;5041750;28;20102;-69
2023/08/10 09:41:10;;;;;;;4.05;0.80;;;20.90;64.10;;;;;;5053773;28;20464;-71
2023/08/10 09:43:37;;;;;;;3.17;1.02;;;20.90;65.40;;;;;;5038080;28;20025;-70
2023/08/10 09:46:10;;;;;;;3.38;1.05;;;20.90;64.50;;;;;;5051204;28;20075;-70
2023/08/10 09:48:41;;;;;;;2.83;1.00;;;20.90;64.80;;;;;;5055023;28;20095;-71
2023/08/10 09:51:09;;;;;;;3.60;1.02;;;20.70;65.40;;;;;;5050870;28;20135;-70
2023/08/10 09:53:35;;;;;;;4.78;1.20;;;20.60;65.40;;;;;;5034133;28;20053;-70
2023/08/10 09:56:01;;;;;;;2.88;0.80;;;20.50;65.20;;;;;;5029664;28;20056;-70
2023/08/10 09:58:27;;;;;;;1.38;0.90;;;20.50;65.00;;;;;;5065227;28;20678;-70
2023/08/10 10:00:53;;;;;;;1.95;0.90;;;20.60;65.00;;;;;;5056563;28;20041;-71
2023/08/10 10:03:28;;;;;;;2.17;0.77;;;20.60;64.70;;;;;;5045448;28;20037;-70
2023/08/10 10:05:54;;;;;;;3.17;1.33;;;20.60;64.80;;;;;;5032419;28;20037;-70
2023/08/10 10:08:20;;;;;;;4.75;0.77;;;20.30;64.10;;;;;;5044547;28;20033;-71
2023/08/10 10:10:46;;;;;;;8.02;1.30;;;20.30;64.30;;;;;;5035184;28;20042;-69
2023/08/10 10:13:15;;;;;;;3.67;0.93;;;20.30;64.50;;;;;;5030337;28;20086;-70
2023/08/10 10:15:44;;;;;;;3.30;0.93;;;20.30;64.50;;;;;;5026414;28;20077;-71
2023/08/10 10:18:10;;;;;;;4.68;1.10;;;20.50;64.80;;;;;;5027352;28;20143;-69
2023/08/10 10:20:39;;;;;;;2.05;0.75;;;20.50;64.60;;;;;;5027181;28;20125;-69
2023/08/10 10:23:12;;;;;;;4.47;1.05;;;20.50;64.70;;;;;;5034051;28;21002;-70
2023/08/10 10:25:38;;;;;;;2.28;1.10;;;20.40;64.80;;;;;;5035402;28;20124;-70
2023/08/10 10:28:12;;;;;;;3.30;0.98;;;20.50;64.50;;;;;;5048001;28;20553;-70
2023/08/10 10:30:53;;;;;;;5.65;1.08;;;20.70;64.40;;;;;;5061283;28;20051;-71
2023/08/10 10:33:19;;;;;;;3.75;0.90;;;20.80;64.50;;;;;;5046719;28;20049;-70
2023/08/10 10:36:11;;;;;;;3.78;0.90;;;20.80;64.60;;;;;;5029661;28;20393;-71
2023/08/10 10:38:43;;;;;;;4.10;0.80;;;20.70;63.50;;;;;;5028659;28;20083;-70
2023/08/10 10:41:12;;;;;;;4.55;1.20;;;20.70;63.60;;;;;;5033172;28;20037;-70
2023/08/10 10:43:38;;;;;;;1.55;1.00;;;20.70;63.60;;;;;;5060108;28;20033;-70
2023/08/10 10:46:04;;;;;;;4.25;0.75;;;20.80;63.80;;;;;;5067155;28;20039;-71
2023/08/10 10:48:36;;;;;;;5.13;0.80;;;20.80;63.80;;;;;;5070844;28;20040;-70
2023/08/10 10:51:04;;;;;;;3.67;1.10;;;20.80;63.50;;;;;;5047320;28;20389;-69
2023/08/10 10:53:30;;;;;;;2.10;0.95;;;20.70;64.00;;;;;;5045224;28;20107;-71
2023/08/10 10:55:56;;;;;;;3.40;1.20;;;20.50;64.00;;;;;;5027963;28;20045;-70
2023/08/10 10:58:22;;;;;;;3.20;0.90;;;20.40;64.20;;;;;;5049035;28;20044;-70
2023/08/10 11:00:48;;;;;;;2.85;1.08;;;20.40;64.30;;;;;;5031045;28;20137;-71
2023/08/10 11:03:13;;;;;;;3.70;1.02;;;20.30;64.50;;;;;;5042746;28;20037;-69
2023/08/10 11:05:39;;;;;;;1.85;0.80;;;20.10;65.20;;;;;;5045474;28;20116;-70
2023/08/10 11:08:08;;;;;;;2.65;1.17;;;20.10;65.40;;;;;;5040223;28;20068;-70
2023/08/10 11:10:36;;;;;;;3.88;1.08;;;20.10;65.30;;;;;;5045946;28;20160;-72
2023/08/10 11:13:09;;;;;;;3.88;0.80;;;20.10;65.20;;;;;;5040906;28;20064;-70
2023/08/10 11:15:36;;;;;;;3.08;0.80;;;20.10;65.30;;;;;;5050929;28;20048;-71
2023/08/10 11:18:10;;;;;;;4.38;0.98;;;20.20;65.00;;;;;;5044805;28;20080;-69
2023/08/10 11:20:40;;;;;;;4.32;0.80;;;20.30;65.10;;;;;;5034720;28;20232;-71
2023/08/10 11:23:06;;;;;;;3.88;0.90;;;20.40;65.10;;;;;;5036550;28;20099;-70
2023/08/10 11:25:32;;;;;;;4.10;0.98;;;20.50;65.40;;;;;;5035655;28;20041;-70
2023/08/10 11:27:58;;;;;;;4.07;1.00;;;20.50;64.50;;;;;;5045215;28;20052;-71
2023/08/10 11:30:24;;;;;;;2.90;0.70;;;20.70;64.00;;;;;;5042146;28;20068;-71
2023/08/10 11:32:53;;;;;;;2.50;0.98;;;20.50;63.80;;;;;;5042978;28;20045;-71
2023/08/10 11:35:21;;;;;;;2.45;1.00;;;20.50;63.80;;;;;;5048838;28;20374;-70
2023/08/10 11:37:48;;;;;;;1.27;0.70;;;20.50;63.30;;;;;;5040237;28;20048;-69
2023/08/10 11:40:21;;;;;;;3.80;1.00;;;20.60;63.30;;;;;;5043277;28;20040;-70
2023/08/10 11:43:15;;;;;;;0.70;0.63;;;20.70;64.20;;;;;;5039907;28;20036;-69
2023/08/10 11:45:41;;;;;;;3.42;1.05;;;20.70;63.90;;;;;;5030425;28;20162;-71
2023/08/10 11:48:11;;;;;;;2.80;1.13;;;20.60;64.50;;;;;;5020446;28;20128;-69
2023/08/10 11:50:38;;;;;;;6.63;1.67;;;20.60;64.50;;;;;;5047615;28;20079;-70
2023/08/10 11:53:11;;;;;;;2.53;1.08;;;20.50;64.80;;;;;;5034814;28;20114;-70
2023/08/10 11:55:46;;;;;;;3.17;1.17;;;20.50;65.10;;;;;;5025729;28;20053;-69
2023/08/10 11:58:13;;;;;;;1.83;1.10;;;20.30;65.80;;;;;;5039090;28;20481;-71
2023/08/10 12:00:41;;;;;;;4.78;1.35;;;20.30;66.00;;;;;;5048602;28;20483;-70
2023/08/10 12:03:21;;;;;;;2.22;0.90;;;20.50;65.80;;;;;;5047282;28;20033;-69
2023/08/10 12:05:51;;;;;;;2.50;1.15;;;20.40;66.10;;;;;;5031401;28;20083;-71
2023/08/10 12:08:32;;;;;;;5.68;1.60;;;20.50;66.00;;;;;;5024874;28;20156;-68
2023/08/10 12:11:07;;;;;;;2.88;1.48;;;20.60;65.70;;;;;;5046317;28;20037;-71
2023/08/10 12:13:44;;;;;;;3.55;1.20;;;20.60;66.40;;;;;;5017318;28;20504;-70
2023/08/10 12:16:09;;;;;;;3.47;1.40;;;20.70;65.90;;;;;;5050079;28;20045;-71
2023/08/10 12:18:35;;;;;;;3.13;1.48;;;20.60;66.10;;;;;;5015083;28;20079;-71
2023/08/10 12:21:00;;;;;;;3.72;1.30;;;20.80;66.00;;;;;;5028079;28;20040;-72
2023/08/10 12:23:26;;;;;;;4.50;1.20;;;20.80;66.60;;;;;;5022700;28;20045;-71
2023/08/10 12:25:51;;;;;;;10.25;1.65;;;20.70;67.00;;;;;;5036966;28;20043;-71
2023/08/10 12:28:19;;;;;;;7.25;1.58;;;20.80;67.00;;;;;;5047110;28;20118;-71
2023/08/10 12:30:45;;;;;;;7.60;1.50;;;20.80;67.20;;;;;;5053905;28;20390;-71
2023/08/10 12:33:11;;;;;;;3.90;1.30;;;20.60;67.30;;;;;;5049715;28;20041;-70
2023/08/10 12:35:37;;;;;;;5.53;1.88;;;20.60;67.40;;;;;;5034045;28;20052;-71
2023/08/10 12:38:05;;;;;;;2.60;1.30;;;20.40;67.70;;;;;;5052090;28;20114;-71
2023/08/10 12:40:31;;;;;;;5.82;1.67;;;20.40;68.20;;;;;;5048486;28;20041;-71
2023/08/10 12:42:58;;;;;;;6.28;1.63;;;20.40;68.20;;;;;;5034583;28;20127;-71
2023/08/10 12:45:25;;;;;;;3.85;1.45;;;20.40;68.40;;;;;;5049073;28;20111;-72
2023/08/10 12:47:51;;;;;;;5.35;1.75;;;20.30;69.00;;;;;;5048851;28;20119;-70